Time;durP1;ratioP1;P1;durP2;ratioP2;P2;SDS_P1;SDS_P2;PMS_P1;PMS_P2;Temp;Humidity;BMP_temperature;BMP_pressure;BME280_temperature;BME280_humidity;BME280_pressure;Samples;Min_cycle;Max_cycle;Signal;HPM_P1;HPM_P2
2023/10/24 00:01:18;;;;;;;19.45;12.50;;;;;;;;;;7371156;19;20022;-73
2023/10/24 00:03:43;;;;;;;18.42;12.82;;;;;;;;;;7367703;19;20537;-73
2023/10/24 00:06:09;;;;;;;18.98;12.13;;;;;;;;;;7391998;19;20639;-73
2023/10/24 00:08:34;;;;;;;16.02;11.15;;;;;;;;;;7371300;19;20034;-73
2023/10/24 00:11:04;;;;;;;17.17;12.55;;;;;;;;;;7369731;19;20010;-73
2023/10/24 00:13:30;;;;;;;18.27;12.48;;;;;;;;;;7370100;19;20010;-73
2023/10/24 00:15:59;;;;;;;19.50;12.63;;;;;;;;;;7371434;19;20019;-74
2023/10/24 00:18:25;;;;;;;20.23;12.93;;;;;;;;;;7391222;19;20059;-72
2023/10/24 00:20:51;;;;;;;19.58;12.77;;;;;;;;;;7370839;19;20036;-73
2023/10/24 00:23:16;;;;;;;23.25;13.15;;;;;;;;;;7368495;19;20010;-73
2023/10/24 00:25:41;;;;;;;20.48;13.75;;;;;;;;;;7370942;19;20026;-73
2023/10/24 00:28:07;;;;;;;19.90;13.85;;;;;;;;;;7371504;19;20082;-73
2023/10/24 00:30:32;;;;;;;19.52;13.30;;;;;;;;;;7391270;19;20002;-73
2023/10/24 00:32:57;;;;;;;19.85;13.13;;;;;;;;;;7367878;19;19998;-73
2023/10/24 00:35:23;;;;;;;20.50;13.25;;;;;;;;;;7366359;19;20006;-74
2023/10/24 00:37:48;;;;;;;17.20;13.07;;;;;;;;;;7366859;19;20389;-74
2023/10/24 00:40:13;;;;;;;18.00;13.38;;;;;;;;;;7368096;19;20118;-73
2023/10/24 00:42:39;;;;;;;18.33;14.05;;;;;;;;;;7379134;19;20349;-74
2023/10/24 00:45:05;;;;;;;20.40;13.27;;;;;;;;;;7378846;19;20007;-73
2023/10/24 00:47:31;;;;;;;16.55;12.48;;;;;;;;;;7368362;19;20040;-73
2023/10/24 00:49:57;;;;;;;20.77;13.45;;;;;;;;;;7369293;19;20014;-73
2023/10/24 00:52:22;;;;;;;20.17;12.98;;;;;;;;;;7369671;19;20010;-74
2023/10/24 00:54:48;;;;;;;23.75;13.25;;;;;;;;;;7369095;19;20038;-72
2023/10/24 00:57:13;;;;;;;19.02;12.85;;;;;;;;;;7395385;19;20390;-73
2023/10/24 00:59:40;;;;;;;18.88;12.95;;;;;;;;;;7376157;19;20014;-73
2023/10/24 01:02:06;;;;;;;18.58;12.50;;;;;;;;;;7386371;19;20111;-73
2023/10/24 01:04:33;;;;;;;19.85;13.10;;;;;;;;;;7377407;19;20036;-74
2023/10/24 01:06:59;;;;;;;21.38;13.70;;;;;;;;;;7370110;19;20016;-73
2023/10/24 01:09:24;;;;;;;23.77;13.85;;;;;;;;;;7390873;19;20014;-74
2023/10/24 01:11:50;;;;;;;18.50;13.45;;;;;;;;;;7368822;19;20019;-73
2023/10/24 01:14:15;;;;;;;23.85;14.07;;;;;;;;;;7367234;19;20766;-74
2023/10/24 01:16:43;;;;;;;20.75;13.77;;;;;;;;;;7368851;19;20499;-74
2023/10/24 01:19:09;;;;;;;16.90;12.98;;;;;;;;;;7369292;19;20046;-74
2023/10/24 01:21:34;;;;;;;18.77;12.60;;;;;;;;;;7389902;19;20010;-74
2023/10/24 01:23:59;;;;;;;19.15;12.68;;;;;;;;;;7365455;19;20006;-72
2023/10/24 01:26:26;;;;;;;15.60;12.48;;;;;;;;;;7368248;19;20548;-73
2023/10/24 01:28:51;;;;;;;17.83;12.60;;;;;;;;;;7368511;19;20009;-73
2023/10/24 01:31:16;;;;;;;18.60;13.55;;;;;;;;;;7368652;19;20006;-73
2023/10/24 01:33:42;;;;;;;20.67;13.90;;;;;;;;;;7365850;19;20028;-73
2023/10/24 01:36:07;;;;;;;21.83;13.88;;;;;;;;;;7389375;19;19999;-73
2023/10/24 01:38:32;;;;;;;22.48;14.45;;;;;;;;;;7364773;19;20018;-73
2023/10/24 01:40:58;;;;;;;19.92;14.32;;;;;;;;;;7368469;19;20011;-73
2023/10/24 01:43:23;;;;;;;22.00;14.23;;;;;;;;;;7363634;19;20018;-73
2023/10/24 01:45:48;;;;;;;19.60;13.80;;;;;;;;;;7364437;19;20006;-74
2023/10/24 01:48:14;;;;;;;22.60;13.40;;;;;;;;;;7388881;19;20002;-73
2023/10/24 01:50:39;;;;;;;22.38;14.57;;;;;;;;;;7367388;19;20568;-73
2023/10/24 01:53:04;;;;;;;19.58;13.63;;;;;;;;;;7367267;19;20006;-72
2023/10/24 01:55:30;;;;;;;22.67;14.80;;;;;;;;;;7367280;19;20491;-73
2023/10/24 01:57:55;;;;;;;21.63;13.75;;;;;;;;;;7367391;19;20011;-73
2023/10/24 02:00:20;;;;;;;18.90;14.52;;;;;;;;;;7388489;19;20007;-73
2023/10/24 02:02:46;;;;;;;21.55;14.77;;;;;;;;;;7365793;19;20013;-73
2023/10/24 02:05:12;;;;;;;19.73;14.50;;;;;;;;;;7365881;19;20030;-73
2023/10/24 02:07:38;;;;;;;21.67;15.25;;;;;;;;;;7367724;19;20074;-73
2023/10/24 02:10:04;;;;;;;20.48;14.93;;;;;;;;;;7365753;19;20019;-73
2023/10/24 02:12:30;;;;;;;22.05;14.60;;;;;;;;;;7381507;19;20030;-73
2023/10/24 02:14:55;;;;;;;23.63;14.52;;;;;;;;;;7365684;19;20085;-73
2023/10/24 02:17:20;;;;;;;19.98;14.52;;;;;;;;;;7373304;19;20017;-72
2023/10/24 02:19:46;;;;;;;19.60;13.85;;;;;;;;;;7369992;19;20006;-73
2023/10/24 02:22:11;;;;;;;19.88;13.43;;;;;;;;;;7366862;19;19999;-73
2023/10/24 02:24:37;;;;;;;18.58;12.98;;;;;;;;;;7387180;19;20007;-72
2023/10/24 02:27:02;;;;;;;19.88;13.77;;;;;;;;;;7366656;19;20003;-73
2023/10/24 02:29:27;;;;;;;19.08;13.90;;;;;;;;;;7366611;19;20081;-73
2023/10/24 02:31:53;;;;;;;17.23;13.25;;;;;;;;;;7364818;19;20040;-73
2023/10/24 02:34:18;;;;;;;16.52;12.95;;;;;;;;;;7366464;19;20059;-73
2023/10/24 02:36:43;;;;;;;20.77;13.20;;;;;;;;;;7372209;19;20471;-74
2023/10/24 02:39:09;;;;;;;19.77;12.98;;;;;;;;;;7392994;19;20015;-73
2023/10/24 02:41:35;;;;;;;22.38;13.70;;;;;;;;;;7368857;19;20522;-73
2023/10/24 02:44:00;;;;;;;17.63;13.05;;;;;;;;;;7369014;19;20006;-73
2023/10/24 02:46:25;;;;;;;18.38;13.25;;;;;;;;;;7370947;19;20026;-73
2023/10/24 02:48:51;;;;;;;18.48;13.48;;;;;;;;;;7372208;19;20002;-73
2023/10/24 02:51:16;;;;;;;15.88;13.52;;;;;;;;;;7395336;19;20316;-73
2023/10/24 02:53:41;;;;;;;19.35;13.73;;;;;;;;;;7370325;19;20006;-73
2023/10/24 02:56:07;;;;;;;19.40;13.63;;;;;;;;;;7378523;19;20036;-73
2023/10/24 02:58:32;;;;;;;22.40;14.70;;;;;;;;;;7374219;19;20531;-73
2023/10/24 03:01:03;;;;;;;20.40;14.13;;;;;;;;;;7374747;19;20091;-73
2023/10/24 03:03:29;;;;;;;19.85;14.18;;;;;;;;;;7391510;19;20448;-73
2023/10/24 03:05:54;;;;;;;24.73;14.25;;;;;;;;;;7371275;19;20018;-73
2023/10/24 03:08:20;;;;;;;18.52;13.57;;;;;;;;;;7373234;19;20070;-73
2023/10/24 03:10:45;;;;;;;22.30;15.10;;;;;;;;;;7372541;19;20014;-73
2023/10/24 03:13:11;;;;;;;22.60;15.60;;;;;;;;;;7371983;19;20200;-73
2023/10/24 03:15:36;;;;;;;19.85;15.05;;;;;;;;;;7393886;19;20007;-72
2023/10/24 03:18:02;;;;;;;23.15;14.95;;;;;;;;;;7373151;19;20007;-73
2023/10/24 03:20:27;;;;;;;20.83;14.75;;;;;;;;;;7372859;19;20006;-72
2023/10/24 03:22:54;;;;;;;21.15;14.30;;;;;;;;;;7371255;19;20431;-72
2023/10/24 03:25:19;;;;;;;24.23;14.85;;;;;;;;;;7372178;19;20378;-73
2023/10/24 03:27:45;;;;;;;19.40;14.57;;;;;;;;;;7375242;19;20016;-71
2023/10/24 03:30:10;;;;;;;24.63;15.13;;;;;;;;;;7415667;19;19999;-73
2023/10/24 03:32:35;;;;;;;19.58;14.27;;;;;;;;;;7405585;19;20007;-73
2023/10/24 03:35:01;;;;;;;22.58;15.43;;;;;;;;;;7397126;19;20038;-73
2023/10/24 03:37:27;;;;;;;22.02;15.23;;;;;;;;;;7378244;19;20010;-72
2023/10/24 03:39:52;;;;;;;22.17;15.57;;;;;;;;;;7377056;19;20078;-72
2023/10/24 03:42:17;;;;;;;25.42;15.93;;;;;;;;;;7397482;19;20084;-73
2023/10/24 03:44:43;;;;;;;24.45;16.08;;;;;;;;;;7371163;19;20003;-72
2023/10/24 03:47:08;;;;;;;25.45;16.55;;;;;;;;;;7371592;19;20010;-72
2023/10/24 03:49:33;;;;;;;23.98;16.00;;;;;;;;;;7371429;19;20343;-72
2023/10/24 03:51:59;;;;;;;24.63;16.00;;;;;;;;;;7371149;19;19995;-72
2023/10/24 03:54:26;;;;;;;28.35;17.50;;;;;;;;;;7392952;19;19995;-72
2023/10/24 03:56:51;;;;;;;24.90;16.45;;;;;;;;;;7370372;19;20003;-72
2023/10/24 03:59:16;;;;;;;24.10;17.67;;;;;;;;;;7370526;19;20014;-73
2023/10/24 04:01:42;;;;;;;24.02;16.70;;;;;;;;;;7369873;19;20073;-73
2023/10/24 04:04:07;;;;;;;26.63;17.35;;;;;;;;;;7369696;19;20014;-73
2023/10/24 04:06:34;;;;;;;23.58;16.85;;;;;;;;;;7390462;19;20884;-73
2023/10/24 04:09:04;;;;;;;24.33;16.95;;;;;;;;;;7370433;19;20011;-72
2023/10/24 04:11:30;;;;;;;26.95;18.15;;;;;;;;;;7369168;19;20073;-72
2023/10/24 04:13:55;;;;;;;21.67;16.73;;;;;;;;;;7367425;19;20377;-73
2023/10/24 04:16:20;;;;;;;23.92;17.50;;;;;;;;;;7370705;19;20002;-73
2023/10/24 04:18:46;;;;;;;24.10;18.52;;;;;;;;;;7369441;19;20010;-72
2023/10/24 04:21:14;;;;;;;32.08;24.05;;;;;;;;;;7391650;19;19999;-73
2023/10/24 04:23:39;;;;;;;40.28;28.00;;;;;;;;;;7366108;19;20047;-73
2023/10/24 04:26:05;;;;;;;46.80;36.45;;;;;;;;;;7370216;19;20006;-73
2023/10/24 04:28:31;;;;;;;34.92;26.80;;;;;;;;;;7370583;19;20765;-73
2023/10/24 04:30:56;;;;;;;37.85;26.63;;;;;;;;;;7367206;19;20010;-73
2023/10/24 04:33:21;;;;;;;35.05;27.10;;;;;;;;;;7388814;19;19999;-73
2023/10/24 04:35:49;;;;;;;29.60;18.67;;;;;;;;;;7368338;19;20006;-73
2023/10/24 04:38:15;;;;;;;27.10;19.02;;;;;;;;;;7369164;19;20021;-73
2023/10/24 04:40:40;;;;;;;28.95;21.05;;;;;;;;;;7364755;19;20567;-73
2023/10/24 04:43:06;;;;;;;27.42;20.40;;;;;;;;;;7369195;19;20014;-73
2023/10/24 04:45:32;;;;;;;27.48;18.50;;;;;;;;;;7389991;19;20007;-73
2023/10/24 04:48:04;;;;;;;28.48;19.27;;;;;;;;;;7371223;19;20018;-73
2023/10/24 04:50:30;;;;;;;27.00;19.00;;;;;;;;;;7369921;19;20009;-73
2023/10/24 04:52:55;;;;;;;30.80;18.80;;;;;;;;;;7375498;19;20007;-72
2023/10/24 04:55:22;;;;;;;30.92;20.88;;;;;;;;;;7388813;19;20010;-74
2023/10/24 04:57:47;;;;;;;28.27;19.75;;;;;;;;;;7385956;19;20032;-73
2023/10/24 05:00:16;;;;;;;28.02;19.55;;;;;;;;;;7400929;19;20075;-72
2023/10/24 05:02:43;;;;;;;32.17;20.27;;;;;;;;;;7352584;19;20025;-73
2023/10/24 05:05:09;;;;;;;25.30;19.00;;;;;;;;;;7352192;19;20369;-73
2023/10/24 05:07:34;;;;;;;27.02;18.95;;;;;;;;;;7365863;19;20318;-73
2023/10/24 05:10:00;;;;;;;29.08;19.33;;;;;;;;;;7368719;19;20102;-72
2023/10/24 05:12:25;;;;;;;31.50;19.70;;;;;;;;;;7388233;19;19999;-73
2023/10/24 05:14:50;;;;;;;32.10;19.75;;;;;;;;;;7367298;19;20010;-74
2023/10/24 05:17:16;;;;;;;30.20;19.20;;;;;;;;;;7365125;19;20377;-74
2023/10/24 05:19:42;;;;;;;30.85;19.10;;;;;;;;;;7368195;19;20017;-73
2023/10/24 05:22:10;;;;;;;26.35;19.08;;;;;;;;;;7367947;19;20042;-73
2023/10/24 05:24:36;;;;;;;28.45;20.63;;;;;;;;;;7387523;19;20423;-74
2023/10/24 05:27:02;;;;;;;31.50;20.25;;;;;;;;;;7366929;19;20022;-73
2023/10/24 05:29:27;;;;;;;28.20;19.50;;;;;;;;;;7367709;19;20006;-73
2023/10/24 05:31:53;;;;;;;28.90;19.52;;;;;;;;;;7367217;19;20038;-73
2023/10/24 05:34:18;;;;;;;30.67;19.73;;;;;;;;;;7368917;19;20074;-73
2023/10/24 05:36:43;;;;;;;27.08;19.45;;;;;;;;;;7367057;19;20001;-68
2023/10/24 05:39:09;;;;;;;29.40;18.88;;;;;;;;;;7389352;19;20032;-69
2023/10/24 05:41:34;;;;;;;26.63;18.70;;;;;;;;;;7363192;19;20032;-72
2023/10/24 05:43:59;;;;;;;32.78;20.05;;;;;;;;;;7365171;19;20012;-73
2023/10/24 05:46:24;;;;;;;37.42;25.40;;;;;;;;;;7364433;19;20604;-72
2023/10/24 05:48:50;;;;;;;47.33;26.73;;;;;;;;;;7366652;19;20026;-73
2023/10/24 05:51:30;;;;;;;35.30;21.27;;;;;;;;;;7382608;19;20030;-73
2023/10/24 05:53:56;;;;;;;31.70;20.92;;;;;;;;;;7361803;19;20550;-73
2023/10/24 05:56:22;;;;;;;30.88;20.42;;;;;;;;;;7365224;19;20039;-74
2023/10/24 05:58:48;;;;;;;30.58;20.38;;;;;;;;;;7366524;19;20002;-73
2023/10/24 06:01:13;;;;;;;30.33;20.13;;;;;;;;;;7367415;19;20027;-73
2023/10/24 06:03:38;;;;;;;30.13;21.17;;;;;;;;;;7379929;19;20349;-72
2023/10/24 06:06:04;;;;;;;36.15;20.98;;;;;;;;;;7373317;19;20009;-73
2023/10/24 06:08:29;;;;;;;34.13;21.45;;;;;;;;;;7365676;19;20002;-73
2023/10/24 06:10:56;;;;;;;33.50;20.88;;;;;;;;;;7365846;19;20090;-72
2023/10/24 06:13:21;;;;;;;28.90;19.60;;;;;;;;;;7362940;19;20591;-73
2023/10/24 06:15:46;;;;;;;33.17;19.45;;;;;;;;;;7365999;19;20003;-72
2023/10/24 06:18:12;;;;;;;27.08;19.00;;;;;;;;;;7386209;19;20009;-73
2023/10/24 06:20:38;;;;;;;26.35;18.83;;;;;;;;;;7364938;19;20002;-72
2023/10/24 06:23:05;;;;;;;32.45;21.20;;;;;;;;;;7368041;19;20393;-73
2023/10/24 06:25:38;;;;;;;32.85;19.90;;;;;;;;;;7367114;19;20510;-73
2023/10/24 06:28:04;;;;;;;34.53;20.80;;;;;;;;;;7361634;19;20480;-72
2023/10/24 06:30:31;;;;;;;28.98;21.00;;;;;;;;;;7391365;19;20010;-73
2023/10/24 06:32:56;;;;;;;32.50;20.98;;;;;;;;;;7363255;19;20018;-74
2023/10/24 06:35:21;;;;;;;31.67;20.23;;;;;;;;;;7364795;19;19999;-74
2023/10/24 06:37:47;;;;;;;29.67;21.83;;;;;;;;;;7366720;19;20010;-73
2023/10/24 06:40:12;;;;;;;28.52;20.50;;;;;;;;;;7368122;19;20026;-73
2023/10/24 06:42:38;;;;;;;31.00;20.00;;;;;;;;;;7388354;19;20039;-74
2023/10/24 06:45:05;;;;;;;27.35;19.80;;;;;;;;;;7364346;19;20360;-73
2023/10/24 06:47:30;;;;;;;31.10;20.27;;;;;;;;;;7364069;19;20121;-73
2023/10/24 06:49:56;;;;;;;30.70;20.92;;;;;;;;;;7364200;19;20785;-72
2023/10/24 06:52:21;;;;;;;29.35;20.23;;;;;;;;;;7363299;19;20070;-73
2023/10/24 06:54:46;;;;;;;30.38;20.35;;;;;;;;;;7363493;19;20142;-74
2023/10/24 06:57:11;;;;;;;29.85;20.48;;;;;;;;;;7386427;19;20019;-72
2023/10/24 06:59:37;;;;;;;30.45;20.50;;;;;;;;;;7364735;19;20011;-73
2023/10/24 07:02:02;;;;;;;27.98;19.92;;;;;;;;;;7364129;19;20021;-73
2023/10/24 07:04:28;;;;;;;29.40;20.65;;;;;;;;;;7363595;19;20011;-73
2023/10/24 07:06:53;;;;;;;29.35;20.42;;;;;;;;;;7362004;19;20006;-73
2023/10/24 07:09:19;;;;;;;28.05;20.83;;;;;;;;;;7386135;19;19999;-75
2023/10/24 07:11:44;;;;;;;31.17;20.60;;;;;;;;;;7362758;19;20036;-74
2023/10/24 07:14:09;;;;;;;29.58;21.02;;;;;;;;;;7363689;19;20010;-73
2023/10/24 07:16:35;;;;;;;36.03;22.10;;;;;;;;;;7364879;19;20034;-73
2023/10/24 07:19:00;;;;;;;30.02;21.65;;;;;;;;;;7363115;19;20014;-73
2023/10/24 07:21:25;;;;;;;33.05;21.13;;;;;;;;;;7395747;19;20006;-74
2023/10/24 07:23:55;;;;;;;35.60;25.08;;;;;;;;;;7400193;19;20014;-73
2023/10/24 07:26:21;;;;;;;33.50;21.08;;;;;;;;;;7407340;19;20002;-73
2023/10/24 07:28:46;;;;;;;30.45;20.40;;;;;;;;;;7395712;19;20010;-72
2023/10/24 07:31:11;;;;;;;32.25;20.70;;;;;;;;;;7374499;19;20015;-73
2023/10/24 07:33:37;;;;;;;28.52;21.05;;;;;;;;;;7392581;19;20002;-72
2023/10/24 07:36:06;;;;;;;31.95;21.02;;;;;;;;;;7371990;19;20006;-73
2023/10/24 07:38:31;;;;;;;33.00;21.30;;;;;;;;;;7370861;19;20022;-72
2023/10/24 07:40:57;;;;;;;29.92;21.42;;;;;;;;;;7372444;19;20010;-72
2023/10/24 07:43:22;;;;;;;28.83;19.98;;;;;;;;;;7368779;19;20026;-72
2023/10/24 07:45:51;;;;;;;33.38;21.20;;;;;;;;;;7369447;19;20022;-72
2023/10/24 07:48:17;;;;;;;32.17;21.27;;;;;;;;;;7393550;19;20334;-73
2023/10/24 07:50:56;;;;;;;30.67;20.73;;;;;;;;;;7377075;19;20085;-73
2023/10/24 07:53:25;;;;;;;30.10;20.60;;;;;;;;;;7370287;19;20007;-73
2023/10/24 07:55:51;;;;;;;31.98;21.83;;;;;;;;;;7371247;19;20114;-73
2023/10/24 07:58:17;;;;;;;30.50;20.58;;;;;;;;;;7371225;19;20042;-73
2023/10/24 08:00:44;;;;;;;32.33;20.02;;;;;;;;;;7369418;19;20637;-72
2023/10/24 08:03:11;;;;;;;22.60;15.93;;;;;;;;;;7389064;19;20488;-72
2023/10/24 08:05:37;;;;;;;24.33;17.00;;;;;;;;;;7367651;19;20021;-73
2023/10/24 08:08:05;;;;;;;21.52;15.80;;;;;;;;;;7369896;19;20010;-74
2023/10/24 08:10:32;;;;;;;22.35;14.82;;;;;;;;;;7369758;19;20578;-72
2023/10/24 08:12:58;;;;;;;18.95;13.00;;;;;;;;;;7369908;19;20030;-73
2023/10/24 08:15:23;;;;;;;18.25;11.82;;;;;;;;;;7391306;19;19999;-73
2023/10/24 08:17:48;;;;;;;16.38;11.18;;;;;;;;;;7369266;19;20006;-73
2023/10/24 08:20:14;;;;;;;16.15;11.15;;;;;;;;;;7360845;19;20531;-72
2023/10/24 08:22:39;;;;;;;17.42;13.13;;;;;;;;;;7369864;19;20587;-73
2023/10/24 08:25:05;;;;;;;33.72;26.70;;;;;;;;;;7369628;19;20011;-73
2023/10/24 08:27:30;;;;;;;13.57;9.70;;;;;;;;;;7392257;19;19999;-73
2023/10/24 08:29:56;;;;;;;13.65;9.23;;;;;;;;;;7370579;19;20126;-73
2023/10/24 08:32:22;;;;;;;12.93;10.00;;;;;;;;;;7364604;19;20007;-72
2023/10/24 08:34:47;;;;;;;16.42;10.55;;;;;;;;;;7368910;19;20034;-72
2023/10/24 08:37:13;;;;;;;15.25;10.98;;;;;;;;;;7370794;19;20036;-73
2023/10/24 08:39:38;;;;;;;15.82;10.65;;;;;;;;;;7391759;19;20002;-72
2023/10/24 08:42:04;;;;;;;14.27;10.38;;;;;;;;;;7370396;19;20349;-72
2023/10/24 08:44:30;;;;;;;15.50;10.25;;;;;;;;;;7374013;19;20011;-73
2023/10/24 08:46:56;;;;;;;16.90;10.57;;;;;;;;;;7382868;19;20029;-73
2023/10/24 08:49:23;;;;;;;18.77;11.38;;;;;;;;;;7382189;19;20019;-73
2023/10/24 08:51:48;;;;;;;40.78;29.60;;;;;;;;;;7383693;19;20007;-72
2023/10/24 08:54:14;;;;;;;19.15;15.05;;;;;;;;;;7403151;19;20009;-73
2023/10/24 08:56:41;;;;;;;19.42;13.18;;;;;;;;;;7379545;19;20031;-73
2023/10/24 08:59:12;;;;;;;16.20;12.85;;;;;;;;;;7371862;19;20342;-72
2023/10/24 09:01:40;;;;;;;22.88;14.98;;;;;;;;;;7369966;19;20480;-74
2023/10/24 09:04:06;;;;;;;23.50;14.07;;;;;;;;;;7365912;19;20669;-74
2023/10/24 09:06:33;;;;;;;22.05;15.70;;;;;;;;;;7389864;19;20011;-74
2023/10/24 09:08:58;;;;;;;21.73;15.98;;;;;;;;;;7368728;19;20339;-73
2023/10/24 09:11:24;;;;;;;21.73;16.63;;;;;;;;;;7368229;19;20116;-74
2023/10/24 09:13:49;;;;;;;27.17;18.65;;;;;;;;;;7366195;19;20023;-74
2023/10/24 09:16:15;;;;;;;24.85;18.73;;;;;;;;;;7372347;19;20021;-72
2023/10/24 09:18:41;;;;;;;34.72;21.48;;;;;;;;;;7373836;19;19998;-73
2023/10/24 09:21:08;;;;;;;31.30;20.70;;;;;;;;;;7393277;19;20468;-74
2023/10/24 09:23:35;;;;;;;29.02;20.33;;;;;;;;;;7365532;19;20010;-72
2023/10/24 09:26:05;;;;;;;32.75;21.83;;;;;;;;;;7365355;19;20090;-73
2023/10/24 09:28:31;;;;;;;32.97;21.20;;;;;;;;;;7366906;19;20058;-73
2023/10/24 09:30:59;;;;;;;32.25;21.80;;;;;;;;;;7367924;19;19999;-76
2023/10/24 09:33:28;;;;;;;32.42;20.77;;;;;;;;;;7387081;19;20011;-76
2023/10/24 09:35:55;;;;;;;38.20;22.38;;;;;;;;;;7366420;19;20020;-75
2023/10/24 09:38:24;;;;;;;34.85;22.98;;;;;;;;;;7366883;19;20013;-74
2023/10/24 09:40:51;;;;;;;32.53;22.63;;;;;;;;;;7367287;19;20114;-74
2023/10/24 09:43:20;;;;;;;34.50;22.10;;;;;;;;;;7366080;19;20010;-74
2023/10/24 09:45:47;;;;;;;33.63;22.08;;;;;;;;;;7366812;19;20686;-73
2023/10/24 09:48:14;;;;;;;32.17;21.33;;;;;;;;;;7388115;19;20013;-74
2023/10/24 09:50:41;;;;;;;30.50;21.48;;;;;;;;;;7366731;19;20006;-73
2023/10/24 09:53:07;;;;;;;32.17;21.30;;;;;;;;;;7365667;19;20006;-73
2023/10/24 09:55:34;;;;;;;30.20;19.95;;;;;;;;;;7366045;19;20021;-74
2023/10/24 09:58:00;;;;;;;32.25;20.85;;;;;;;;;;7366036;19;19999;-73
2023/10/24 10:00:26;;;;;;;27.83;19.83;;;;;;;;;;7388570;19;20429;-74
2023/10/24 10:02:54;;;;;;;29.52;20.13;;;;;;;;;;7364996;19;20006;-73
2023/10/24 10:05:20;;;;;;;30.17;19.17;;;;;;;;;;7365483;19;19998;-74
2023/10/24 10:07:49;;;;;;;29.23;20.27;;;;;;;;;;7366080;19;20539;-73
2023/10/24 10:10:16;;;;;;;29.65;21.02;;;;;;;;;;7365792;19;20002;-75
2023/10/24 10:12:41;;;;;;;34.97;21.85;;;;;;;;;;7365058;19;20010;-74
2023/10/24 10:15:49;;;;;;;34.90;22.60;;;;;;;;;;7387092;19;19999;-73
2023/10/24 10:18:52;;;;;;;31.88;21.17;;;;;;;;;;7365840;19;20003;-76
2023/10/24 10:21:23;;;;;;;29.38;20.33;;;;;;;;;;7366666;19;20015;-74
2023/10/24 10:24:13;;;;;;;27.80;19.58;;;;;;;;;;7362797;19;20006;-73
2023/10/24 10:26:47;;;;;;;27.58;19.77;;;;;;;;;;7366459;19;20700;-73
2023/10/24 10:29:22;;;;;;;27.50;18.75;;;;;;;;;;7365906;19;20441;-74
2023/10/24 10:32:01;;;;;;;33.67;20.67;;;;;;;;;;7364961;19;20516;-72
2023/10/24 10:34:35;;;;;;;25.67;19.23;;;;;;;;;;7365473;19;20021;-73
2023/10/24 10:37:01;;;;;;;28.23;19.90;;;;;;;;;;7365220;19;20019;-74
2023/10/24 10:39:26;;;;;;;29.20;20.95;;;;;;;;;;7387041;19;20082;-74
2023/10/24 10:41:51;;;;;;;30.00;21.52;;;;;;;;;;7364789;19;20070;-75
2023/10/24 10:44:41;;;;;;;32.25;19.48;;;;;;;;;;7369239;19;20461;-74
2023/10/24 10:47:08;;;;;;;27.15;18.38;;;;;;;;;;7369573;19;20017;-75
2023/10/24 10:49:39;;;;;;;25.45;18.23;;;;;;;;;;7365780;19;20325;-74
2023/10/24 10:52:07;;;;;;;;;;;;;;;;;;7365185;19;20365;-74
2023/10/24 10:55:12;;;;;;;28.63;19.02;;;;;;;;;;7386495;19;19933;-73
2023/10/24 10:58:05;;;;;;;30.30;20.98;;;;;;;;;;7268880;19;2005746;-72
2023/10/24 11:00:56;;;;;;;30.25;19.88;;;;;;;;;;7396228;19;20016;-74
2023/10/24 11:03:22;;;;;;;;;;;;;;;;;;7369882;19;20476;-73
2023/10/24 11:05:48;;;;;;;27.40;20.80;;;;;;;;;;7369805;19;19995;-72
2023/10/24 11:08:18;;;;;;;29.85;21.63;;;;;;;;;;7371899;19;19998;-72
2023/10/24 11:10:57;;;;;;;31.73;22.53;;;;;;;;;;7390655;19;20012;-74
2023/10/24 11:13:36;;;;;;;30.58;21.00;;;;;;;;;;7410007;19;20042;-74
2023/10/24 11:16:03;;;;;;;31.77;23.15;;;;;;;;;;7406300;19;20003;-73
2023/10/24 11:18:30;;;;;;;28.17;21.35;;;;;;;;;;7419747;19;19994;-74
2023/10/24 11:20:55;;;;;;;29.90;21.52;;;;;;;;;;7391229;19;20203;-75
2023/10/24 11:23:21;;;;;;;29.13;20.38;;;;;;;;;;7383291;19;20007;-76
2023/10/24 11:25:47;;;;;;;24.65;19.40;;;;;;;;;;7384527;19;20011;-77
2023/10/24 11:28:12;;;;;;;27.77;20.15;;;;;;;;;;7383594;19;20013;-73
2023/10/24 11:30:37;;;;;;;27.30;19.40;;;;;;;;;;7404016;19;20026;-75
2023/10/24 11:33:03;;;;;;;25.58;19.23;;;;;;;;;;7372254;19;20360;-74
2023/10/24 11:35:28;;;;;;;25.73;19.40;;;;;;;;;;7371091;19;20036;-74
2023/10/24 11:37:53;;;;;;;24.52;18.48;;;;;;;;;;7370745;19;20033;-74
2023/10/24 11:40:19;;;;;;;20.88;16.73;;;;;;;;;;7371417;19;20021;-73
2023/10/24 11:42:44;;;;;;;21.20;17.02;;;;;;;;;;7369444;19;20014;-74
2023/10/24 11:45:09;;;;;;;21.48;15.80;;;;;;;;;;7391040;19;20403;-75
2023/10/24 11:47:35;;;;;;;26.63;17.45;;;;;;;;;;7370157;19;20061;-74
2023/10/24 11:50:00;;;;;;;22.50;17.10;;;;;;;;;;7371151;19;20024;-74
2023/10/24 11:52:26;;;;;;;23.17;17.40;;;;;;;;;;7369443;19;20023;-74
2023/10/24 11:54:54;;;;;;;25.55;18.25;;;;;;;;;;7369533;19;20002;-73
2023/10/24 11:57:22;;;;;;;25.83;18.02;;;;;;;;;;7391973;19;20006;-73
2023/10/24 11:59:51;;;;;;;24.08;17.67;;;;;;;;;;7370342;19;20003;-75
2023/10/24 12:02:17;;;;;;;29.60;20.02;;;;;;;;;;7368098;19;20006;-75
2023/10/24 12:04:49;;;;;;;29.17;19.27;;;;;;;;;;7369608;19;20002;-74
2023/10/24 12:07:14;;;;;;;29.17;20.40;;;;;;;;;;7370364;19;20007;-75
2023/10/24 12:09:39;;;;;;;28.80;20.02;;;;;;;;;;7390587;19;20554;-69
2023/10/24 12:12:05;;;;;;;29.35;20.75;;;;;;;;;;7376672;19;20486;-73
2023/10/24 12:14:31;;;;;;;29.80;22.23;;;;;;;;;;7370569;19;20106;-76
2023/10/24 12:16:58;;;;;;;32.58;21.00;;;;;;;;;;7370301;19;20015;-75
2023/10/24 12:19:23;;;;;;;30.25;22.60;;;;;;;;;;7369499;19;20124;-77
2023/10/24 12:21:48;;;;;;;30.92;22.75;;;;;;;;;;7369075;19;20042;-75
2023/10/24 12:24:14;;;;;;;27.48;21.95;;;;;;;;;;7390157;19;20059;-75
2023/10/24 12:26:39;;;;;;;28.58;22.23;;;;;;;;;;7367032;19;20452;-75
2023/10/24 12:29:09;;;;;;;29.23;22.63;;;;;;;;;;7366796;19;20010;-75
2023/10/24 12:31:35;;;;;;;31.23;22.85;;;;;;;;;;7369416;19;20519;-74
2023/10/24 12:34:00;;;;;;;29.80;22.05;;;;;;;;;;7366433;19;20003;-73
2023/10/24 12:36:26;;;;;;;27.08;21.52;;;;;;;;;;7390669;19;20046;-74
2023/10/24 12:38:51;;;;;;;27.55;22.23;;;;;;;;;;7366759;19;20028;-74
2023/10/24 12:41:16;;;;;;;31.83;23.02;;;;;;;;;;7367846;19;19999;-74
2023/10/24 12:43:42;;;;;;;30.02;23.05;;;;;;;;;;7367132;19;20031;-74
2023/10/24 12:46:07;;;;;;;28.25;23.10;;;;;;;;;;7379615;19;20464;-74
2023/10/24 12:48:33;;;;;;;31.58;23.48;;;;;;;;;;7415393;19;20002;-74
2023/10/24 12:50:58;;;;;;;30.58;23.55;;;;;;;;;;7389867;19;20014;-74
2023/10/24 12:53:24;;;;;;;29.83;23.42;;;;;;;;;;7368008;19;20027;-75
2023/10/24 12:55:50;;;;;;;30.45;23.85;;;;;;;;;;7368685;19;20018;-74
2023/10/24 12:58:15;;;;;;;31.05;24.02;;;;;;;;;;7369819;19;20007;-75
2023/10/24 13:00:40;;;;;;;32.22;25.55;;;;;;;;;;7379556;19;19999;-75
2023/10/24 13:03:05;;;;;;;33.00;24.95;;;;;;;;;;7376733;19;20623;-76
2023/10/24 13:05:31;;;;;;;36.92;26.98;;;;;;;;;;7364187;19;20010;-75
2023/10/24 13:07:57;;;;;;;36.83;26.98;;;;;;;;;;7367369;19;20010;-75
2023/10/24 13:10:23;;;;;;;35.75;26.58;;;;;;;;;;7367324;19;20031;-74
2023/10/24 13:12:48;;;;;;;37.13;26.85;;;;;;;;;;7366459;19;20002;-75
2023/10/24 13:15:13;;;;;;;32.75;24.60;;;;;;;;;;7388989;19;20127;-74
2023/10/24 13:17:39;;;;;;;34.63;25.85;;;;;;;;;;7366212;19;20838;-74
2023/10/24 13:20:04;;;;;;;37.38;27.45;;;;;;;;;;7367539;19;20015;-75
2023/10/24 13:22:30;;;;;;;37.35;27.77;;;;;;;;;;7365890;19;20783;-74
2023/10/24 13:24:55;;;;;;;40.70;28.95;;;;;;;;;;7365377;19;20018;-76
2023/10/24 13:27:21;;;;;;;41.83;29.30;;;;;;;;;;7389795;19;20006;-74
2023/10/24 13:29:46;;;;;;;39.78;28.20;;;;;;;;;;7366588;19;20014;-74
2023/10/24 13:32:12;;;;;;;38.08;27.05;;;;;;;;;;7365579;19;20587;-74
2023/10/24 13:34:37;;;;;;;39.97;26.15;;;;;;;;;;7366794;19;20456;-74
2023/10/24 13:37:02;;;;;;;35.80;25.88;;;;;;;;;;7370473;19;20082;-75
2023/10/24 13:39:28;;;;;;;37.75;25.73;;;;;;;;;;7398512;19;20062;-75
2023/10/24 13:41:53;;;;;;;40.10;27.10;;;;;;;;;;7377982;19;20011;-74
2023/10/24 13:44:19;;;;;;;40.85;28.50;;;;;;;;;;7382256;19;20020;-75
2023/10/24 13:46:45;;;;;;;39.67;26.20;;;;;;;;;;7366427;19;20097;-75
2023/10/24 13:49:11;;;;;;;37.55;27.88;;;;;;;;;;7366959;19;20002;-74
2023/10/24 13:51:36;;;;;;;37.45;27.75;;;;;;;;;;7388516;19;20003;-75
2023/10/24 13:54:02;;;;;;;38.13;28.38;;;;;;;;;;7362122;19;20015;-75
2023/10/24 13:56:28;;;;;;;42.13;28.38;;;;;;;;;;7366291;19;20010;-75
2023/10/24 13:58:53;;;;;;;41.15;28.92;;;;;;;;;;7366737;19;20007;-75
2023/10/24 14:01:19;;;;;;;39.03;29.00;;;;;;;;;;7367276;19;20030;-75
2023/10/24 14:03:44;;;;;;;60.25;40.28;;;;;;;;;;7364310;19;20417;-76
2023/10/24 14:06:09;;;;;;;73.25;53.25;;;;;;;;;;7388249;19;20587;-75
2023/10/24 14:08:35;;;;;;;51.63;36.47;;;;;;;;;;7366041;19;20010;-74
2023/10/24 14:11:01;;;;;;;43.78;32.70;;;;;;;;;;7366011;19;20086;-74
2023/10/24 14:13:26;;;;;;;46.10;31.10;;;;;;;;;;7364752;19;20078;-74
2023/10/24 14:15:52;;;;;;;32.60;24.50;;;;;;;;;;7365353;19;20460;-73